createdAt,value
2023-07-15T00:01:08.238Z,96795.13
2023-07-15T00:02:11.252Z,96789.03
2023-07-15T00:03:14.752Z,96794.56
2023-07-15T00:04:16.759Z,96795.13
2023-07-15T00:05:21.813Z,96794.69
2023-07-15T00:06:25.394Z,96794.56
2023-07-15T00:07:26.983Z,96791.38
2023-07-15T00:08:29.034Z,96797.75
2023-07-15T00:09:31.299Z,96788.41
2023-07-15T00:10:38.287Z,96794.56
2023-07-15T00:11:45.406Z,96800.72
2023-07-15T00:12:47.210Z,96791.25
2023-07-15T00:13:48.768Z,96795.41
2023-07-15T00:14:51.221Z,96797.28
2023-07-15T00:15:54.622Z,96794.78
2023-07-15T00:16:57.007Z,96792.03
2023-07-15T00:17:58.674Z,96793.44
2023-07-15T00:19:00.410Z,96790.59
2023-07-15T00:20:02.546Z,96791.81
2023-07-15T00:21:16.693Z,96795.91
2023-07-15T00:22:18.266Z,96798.34
2023-07-15T00:23:22.623Z,96793.47
2023-07-15T00:24:24.948Z,96801.19
2023-07-15T00:25:26.796Z,96794.47
2023-07-15T00:26:31.249Z,96800.28
2023-07-15T00:27:35.236Z,96797.88
2023-07-15T00:28:37.610Z,96794.78
2023-07-15T00:29:40.210Z,96792.03
2023-07-15T00:30:42.118Z,96789.09
2023-07-15T00:31:45.347Z,96788.63
2023-07-15T00:32:49.226Z,96792.66
2023-07-15T00:33:50.963Z,96797.31
2023-07-15T00:34:52.572Z,96794.50
2023-07-15T00:35:54.280Z,96805.50
2023-07-15T00:36:55.957Z,96797.06
2023-07-15T00:37:59.918Z,96801.06
2023-07-15T00:39:01.536Z,96802.72
2023-07-15T00:40:05.109Z,96802.72
2023-07-15T00:41:13.616Z,96801.19
2023-07-15T00:42:21.018Z,96802.34
2023-07-15T00:43:57.701Z,96804.16
2023-07-15T00:44:59.132Z,96806.56
2023-07-15T00:46:19.446Z,96804.44
2023-07-15T00:47:40.840Z,96803.91
2023-07-15T00:48:52.024Z,96804.84
2023-07-15T00:49:54.208Z,96807.44
2023-07-15T00:50:55.806Z,96802.81
2023-07-15T00:52:10.964Z,96811.06
2023-07-15T00:53:13.614Z,96811.06
2023-07-15T00:54:15.651Z,96809.16
2023-07-15T00:55:17.320Z,96810.00
2023-07-15T00:56:19.081Z,96815.56
2023-07-15T00:57:22.742Z,96811.63
2023-07-15T00:58:24.522Z,96806.66
2023-07-15T00:59:26.306Z,96814.13
2023-07-15T01:00:28.175Z,96806.41
2023-07-15T01:01:30.787Z,96821.16
2023-07-15T01:02:32.601Z,96818.31
2023-07-15T01:03:34.398Z,96815.66
2023-07-15T01:04:36.761Z,96814.47
2023-07-15T01:05:39.675Z,96817.13
2023-07-15T01:06:43.020Z,96822.78
2023-07-15T01:07:44.631Z,96811.38
2023-07-15T01:08:46.172Z,96816.25
2023-07-15T01:09:48.563Z,96819.59
2023-07-15T01:10:50.503Z,96812.66
2023-07-15T01:11:52.177Z,96812.66
2023-07-15T01:12:53.991Z,96817.53
2023-07-15T01:13:55.601Z,96820.81
2023-07-15T01:14:57.173Z,96818.06
2023-07-15T01:15:58.791Z,96818.06
2023-07-15T01:17:00.460Z,96816.03
2023-07-15T01:18:02.177Z,96822.25
2023-07-15T01:19:06.547Z,96815.00
2023-07-15T01:20:08.706Z,96816.34
2023-07-15T01:21:12.266Z,96817.81
2023-07-15T01:22:14.220Z,96821.69
2023-07-15T01:23:15.788Z,96817.56
2023-07-15T01:24:19.072Z,96813.59
2023-07-15T01:25:20.772Z,96808.97
2023-07-15T01:26:22.420Z,96810.50
2023-07-15T01:27:24.048Z,96805.69
2023-07-15T01:28:25.729Z,96813.84
2023-07-15T01:29:27.407Z,96817.38
2023-07-15T01:30:30.712Z,96809.66
2023-07-15T01:31:33.312Z,96809.72
2023-07-15T01:32:34.966Z,96807.34
2023-07-15T01:33:36.610Z,96810.66
2023-07-15T01:34:38.245Z,96805.63
2023-07-15T01:35:39.800Z,96805.88
2023-07-15T01:36:41.452Z,96806.91
2023-07-15T01:37:43.052Z,96807.69
2023-07-15T01:38:44.619Z,96813.59
2023-07-15T01:39:48.627Z,96809.06
2023-07-15T01:40:50.297Z,96809.16
2023-07-15T01:41:51.868Z,96816.34
2023-07-15T01:42:53.508Z,96815.50
2023-07-15T01:43:55.248Z,96814.78
2023-07-15T01:44:56.871Z,96819.78
2023-07-15T01:45:59.229Z,96815.50
2023-07-15T01:47:01.432Z,96822.53
2023-07-15T01:48:03.445Z,96819.97
2023-07-15T01:49:05.210Z,96821.00
2023-07-15T01:50:07.161Z,96812.25
2023-07-15T01:51:08.802Z,96814.31
2023-07-15T01:52:10.388Z,96820.97
2023-07-15T01:53:12.018Z,96818.25
2023-07-15T01:54:13.675Z,96819.16
2023-07-15T01:55:15.608Z,96813.88
2023-07-15T01:56:17.217Z,96817.84
2023-07-15T01:57:18.786Z,96824.19
2023-07-15T01:58:21.962Z,96828.09
2023-07-15T01:59:23.566Z,96823.00
2023-07-15T02:00:25.202Z,96822.94
2023-07-15T02:01:28.057Z,96817.56
2023-07-15T02:02:30.557Z,96828.19
2023-07-15T02:03:32.263Z,96828.72
2023-07-15T02:04:34.094Z,96829.25
2023-07-15T02:05:35.773Z,96821.69
2023-07-15T02:06:37.555Z,96826.66
2023-07-15T02:07:39.445Z,96826.13
2023-07-15T02:08:41.099Z,96831.81
2023-07-15T02:09:42.920Z,96834.91
2023-07-15T02:10:48.439Z,96828.53
2023-07-15T02:11:50.399Z,96829.56
2023-07-15T02:12:52.061Z,96834.63
2023-07-15T02:13:53.689Z,96836.50
2023-07-15T02:14:55.730Z,96832.22
2023-07-15T02:15:57.280Z,96829.03
2023-07-15T02:16:59.440Z,96838.91
2023-07-15T02:18:01.189Z,96842.00
2023-07-15T02:19:03.816Z,96839.69
2023-07-15T02:20:07.524Z,96833.00
2023-07-15T02:21:10.341Z,96843.19
2023-07-15T02:22:11.939Z,96836.44
2023-07-15T02:23:13.562Z,96838.84
2023-07-15T02:24:15.249Z,96834.81
2023-07-15T02:25:17.807Z,96832.47
2023-07-15T02:26:19.645Z,96840.41
2023-07-15T02:27:21.235Z,96840.72
2023-07-15T02:28:27.651Z,96845.69
2023-07-15T02:29:29.194Z,96850.41
2023-07-15T02:30:31.367Z,96844.25
2023-07-15T02:31:33.026Z,96848.19
2023-07-15T02:32:42.591Z,96850.25
2023-07-15T02:33:44.448Z,96838.19
2023-07-15T02:34:46.022Z,96842.78
2023-07-15T02:35:47.692Z,96843.47
2023-07-15T02:36:49.400Z,96839.44
2023-07-15T02:37:51.064Z,96852.38
2023-07-15T02:38:52.660Z,96840.97
2023-07-15T02:39:54.288Z,96840.19
2023-07-15T02:40:56.443Z,96854.38
2023-07-15T02:41:58.037Z,96846.56
2023-07-15T02:42:59.658Z,96845.38
2023-07-15T02:44:01.267Z,96841.75
2023-07-15T02:45:07.359Z,96841.75
2023-07-15T02:46:09.151Z,96842.09
2023-07-15T02:47:10.766Z,96848.59
2023-07-15T02:48:12.908Z,96845.69
2023-07-15T02:49:14.533Z,96853.75
2023-07-15T02:50:16.148Z,96854.41
2023-07-15T02:51:18.505Z,96847.72
2023-07-15T02:52:20.081Z,96855.97
2023-07-15T02:53:21.798Z,96856.28
2023-07-15T02:54:23.446Z,96846.00
2023-07-15T02:55:26.327Z,96849.94
2023-07-15T02:56:28.130Z,96858.84
2023-07-15T02:57:29.905Z,96853.25
2023-07-15T02:58:31.494Z,96854.38
2023-07-15T02:59:34.940Z,96855.47
2023-07-15T03:00:39.292Z,96855.41
2023-07-15T03:01:40.849Z,96862.38
2023-07-15T03:02:46.119Z,96860.72
2023-07-15T03:03:47.778Z,96866.88
2023-07-15T03:04:50.047Z,96858.63
2023-07-15T03:05:52.363Z,96866.56
2023-07-15T03:06:56.667Z,96865.34
2023-07-15T03:07:58.307Z,96862.16
2023-07-15T03:09:00.167Z,96863.69
2023-07-15T03:10:02.046Z,96870.31
2023-07-15T03:11:07.467Z,96874.59
2023-07-15T03:12:13.188Z,96870.63
2023-07-15T03:13:14.887Z,96870.22
2023-07-15T03:14:16.511Z,96873.75
2023-07-15T03:15:18.603Z,96872.84
2023-07-15T03:16:23.511Z,96872.97
2023-07-15T03:17:25.358Z,96870.63
2023-07-15T03:18:27.601Z,96869.88
2023-07-15T03:19:31.411Z,96868.53
2023-07-15T03:20:32.994Z,96875.78
2023-07-15T03:21:34.593Z,96870.81
2023-07-15T03:22:36.204Z,96874.03
2023-07-15T03:23:37.830Z,96868.38
2023-07-15T03:24:39.537Z,96873.06
2023-07-15T03:25:41.132Z,96873.41
2023-07-15T03:26:42.773Z,96875.19
2023-07-15T03:27:44.374Z,96875.47
2023-07-15T03:28:45.965Z,96876.00
2023-07-15T03:29:50.246Z,96874.72
2023-07-15T03:30:53.082Z,96882.66
2023-07-15T03:31:54.768Z,96873.38
2023-07-15T03:32:58.376Z,96878.53
2023-07-15T03:34:00.631Z,96885.22
2023-07-15T03:35:02.348Z,96884.38
2023-07-15T03:36:05.654Z,96887.47
2023-07-15T03:37:07.324Z,96885.22
2023-07-15T03:38:09.004Z,96883.78
2023-07-15T03:39:10.643Z,96886.53
2023-07-15T03:40:13.705Z,96880.72
2023-07-15T03:41:15.600Z,96881.53
2023-07-15T03:42:17.302Z,96891.88
2023-07-15T03:43:18.936Z,96878.66
2023-07-15T03:44:20.498Z,96891.13
2023-07-15T03:45:22.121Z,96887.97
2023-07-15T03:46:24.901Z,96889.53
2023-07-15T03:47:26.626Z,96889.53
2023-07-15T03:48:28.529Z,96887.97
2023-07-15T03:49:30.139Z,96887.97
2023-07-15T03:50:31.805Z,96888.75
2023-07-15T03:51:35.420Z,96886.78
2023-07-15T03:52:37.062Z,96887.91
2023-07-15T03:53:38.702Z,96886.44
2023-07-15T03:54:40.305Z,96887.28
2023-07-15T03:55:41.950Z,96882.69
2023-07-15T03:56:43.713Z,96889.66
2023-07-15T03:57:45.298Z,96882.50
2023-07-15T03:58:47.118Z,96891.09
2023-07-15T03:59:48.668Z,96891.78
2023-07-15T04:00:50.242Z,96892.38
2023-07-15T04:01:51.976Z,96893.34
2023-07-15T04:02:55.464Z,96891.09
2023-07-15T04:03:57.205Z,96891.25
2023-07-15T04:04:58.911Z,96888.28
2023-07-15T04:06:00.561Z,96900.59
2023-07-15T04:07:02.361Z,96894.63
2023-07-15T04:08:04.627Z,96886.22
2023-07-15T04:09:06.548Z,96896.22
2023-07-15T04:10:08.581Z,96895.22
2023-07-15T04:11:10.265Z,96897.31
2023-07-15T04:12:12.281Z,96896.66
2023-07-15T04:13:14.486Z,96896.47
2023-07-15T04:14:18.438Z,96903.00
2023-07-15T04:15:20.104Z,96896.66
2023-07-15T04:16:21.739Z,96896.66
2023-07-15T04:17:23.954Z,96896.06
2023-07-15T04:18:26.178Z,96905.94
2023-07-15T04:19:27.775Z,96910.38
2023-07-15T04:20:29.649Z,96910.06
2023-07-15T04:21:31.283Z,96908.63
2023-07-15T04:22:32.987Z,96911.00
2023-07-15T04:23:34.813Z,96911.97
2023-07-15T04:24:36.438Z,96908.34
2023-07-15T04:25:39.410Z,96903.25
2023-07-15T04:26:42.109Z,96907.66
2023-07-15T04:27:43.731Z,96916.06
2023-07-15T04:28:45.297Z,96914.16
2023-07-15T04:29:46.885Z,96913.97
2023-07-15T04:30:48.585Z,96909.59
2023-07-15T04:31:50.244Z,96909.88
2023-07-15T04:32:51.961Z,96918.66
2023-07-15T04:33:55.113Z,96917.19
2023-07-15T04:34:56.695Z,96912.47
2023-07-15T04:35:58.775Z,96915.81
2023-07-15T04:37:00.382Z,96916.75
2023-07-15T04:38:01.929Z,96914.03
2023-07-15T04:39:03.597Z,96924.94
2023-07-15T04:40:06.077Z,96923.13
2023-07-15T04:41:07.941Z,96918.66
2023-07-15T04:42:09.505Z,96929.53
2023-07-15T04:43:11.103Z,96921.25
2023-07-15T04:44:12.713Z,96925.19
2023-07-15T04:45:14.373Z,96920.53
2023-07-15T04:46:16.346Z,96924.00
2023-07-15T04:47:18.898Z,96916.22
2023-07-15T04:48:20.964Z,96918.03
2023-07-15T04:49:23.506Z,96916.41
2023-07-15T04:50:25.287Z,96914.16
2023-07-15T04:51:27.002Z,96912.44
2023-07-15T04:52:28.584Z,96916.19
2023-07-15T04:53:30.294Z,96917.75
2023-07-15T04:54:31.884Z,96916.91
2023-07-15T04:55:33.633Z,96921.47
2023-07-15T04:56:36.069Z,96923.06
2023-07-15T04:57:37.735Z,96918.16
2023-07-15T04:58:42.123Z,96923.25
2023-07-15T04:59:44.367Z,96920.28
2023-07-15T05:00:47.361Z,96923.94
2023-07-15T05:01:49.121Z,96927.69
2023-07-15T05:02:51.054Z,96917.97
2023-07-15T05:03:52.787Z,96923.91
2023-07-15T05:04:54.631Z,96933.69
2023-07-15T05:05:56.227Z,96932.69
2023-07-15T05:06:58.161Z,96931.56
2023-07-15T05:08:14.121Z,96931.09
2023-07-15T05:09:15.688Z,96929.84
2023-07-15T05:10:17.300Z,96935.88
2023-07-15T05:11:20.436Z,96933.06
2023-07-15T05:12:22.036Z,96930.22
2023-07-15T05:13:25.009Z,96939.25
2023-07-15T05:14:26.949Z,96935.16
2023-07-15T05:15:29.663Z,96930.78
2023-07-15T05:16:31.348Z,96931.06
2023-07-15T05:17:33.091Z,96941.88
2023-07-15T05:18:34.767Z,96927.16
2023-07-15T05:19:36.478Z,96942.25
2023-07-15T05:20:38.914Z,96934.84
2023-07-15T05:21:40.658Z,96935.47
2023-07-15T05:22:42.974Z,96938.31
2023-07-15T05:23:44.731Z,96929.53
2023-07-15T05:24:46.424Z,96927.75
2023-07-15T05:25:48.026Z,96932.25
2023-07-15T05:26:49.588Z,96933.19
2023-07-15T05:27:51.770Z,96932.09
2023-07-15T05:28:53.449Z,96936.25
2023-07-15T05:29:54.986Z,96929.25
2023-07-15T05:30:58.720Z,96932.03
2023-07-15T05:32:00.379Z,96934.19
2023-07-15T05:33:02.131Z,96938.50
2023-07-15T05:34:03.798Z,96940.06
2023-07-15T05:35:06.252Z,96932.84
2023-07-15T05:36:09.137Z,96932.84
2023-07-15T05:37:10.817Z,96929.00
2023-07-15T05:38:12.398Z,96932.94
2023-07-15T05:39:15.105Z,96939.22
2023-07-15T05:40:16.801Z,96932.03
2023-07-15T05:41:18.573Z,96936.19
2023-07-15T05:42:21.241Z,96930.88
2023-07-15T05:43:22.946Z,96936.13
2023-07-15T05:44:24.536Z,96933.53
2023-07-15T05:45:26.547Z,96939.69
2023-07-15T05:46:28.206Z,96935.41
2023-07-15T05:47:29.942Z,96928.63
2023-07-15T05:48:35.042Z,96939.69
2023-07-15T05:49:37.376Z,96940.97
2023-07-15T05:50:39.959Z,96941.53
2023-07-15T05:51:41.530Z,96943.09
2023-07-15T05:52:43.177Z,96943.09
2023-07-15T05:53:44.763Z,96936.63
2023-07-15T05:54:46.384Z,96937.59
2023-07-15T05:55:48.127Z,96939.78
2023-07-15T05:56:49.677Z,96939.56
2023-07-15T05:57:51.337Z,96938.78
2023-07-15T05:58:53.044Z,96939.69
2023-07-15T05:59:54.840Z,96940.34
2023-07-15T06:00:56.644Z,96938.53
2023-07-15T06:01:58.271Z,96937.50
2023-07-15T06:02:59.910Z,96941.34
2023-07-15T06:04:01.662Z,96937.69
2023-07-15T06:05:03.367Z,96941.69
2023-07-15T06:06:05.105Z,96935.88
2023-07-15T06:07:06.782Z,96939.41
2023-07-15T06:08:09.364Z,96941.38
2023-07-15T06:09:11.017Z,96939.06
2023-07-15T06:10:12.746Z,96940.59
2023-07-15T06:11:14.709Z,96942.28
2023-07-15T06:12:16.491Z,96933.00
2023-07-15T06:13:18.181Z,96937.56
2023-07-15T06:14:19.859Z,96939.38
2023-07-15T06:15:21.554Z,96937.81
2023-07-15T06:16:23.174Z,96938.25
2023-07-15T06:17:25.062Z,96938.06
2023-07-15T06:18:26.835Z,96935.75
2023-07-15T06:19:28.834Z,96931.00
2023-07-15T06:20:30.463Z,96935.44
2023-07-15T06:21:32.088Z,96929.69
2023-07-15T06:22:33.734Z,96931.81
2023-07-15T06:23:35.648Z,96931.81
2023-07-15T06:24:37.289Z,96936.19
2023-07-15T06:25:39.326Z,96939.94
2023-07-15T06:26:40.876Z,96934.13
2023-07-15T06:27:42.596Z,96938.78
2023-07-15T06:28:44.299Z,96942.66
2023-07-15T06:29:48.487Z,96935.56
2023-07-15T06:30:51.399Z,96934.31
2023-07-15T06:31:53.024Z,96934.47
2023-07-15T06:32:54.669Z,96935.81
2023-07-15T06:33:56.242Z,96938.81
2023-07-15T06:34:57.771Z,96942.59
2023-07-15T06:35:59.405Z,96927.41
2023-07-15T06:37:01.082Z,96934.41
2023-07-15T06:38:02.652Z,96928.41
2023-07-15T06:39:04.401Z,96935.56
2023-07-15T06:40:06.770Z,96931.16
2023-07-15T06:41:08.574Z,96928.63
2023-07-15T06:42:10.164Z,96936.00
2023-07-15T06:43:11.790Z,96929.06
2023-07-15T06:44:13.423Z,96932.00
2023-07-15T06:45:15.082Z,96924.25
2023-07-15T06:46:16.830Z,96926.84
2023-07-15T06:47:18.475Z,96926.91
2023-07-15T06:48:20.139Z,96928.66
2023-07-15T06:49:21.781Z,96929.03
2023-07-15T06:50:23.376Z,96922.19
2023-07-15T06:51:25.117Z,96919.34
2023-07-15T06:52:26.800Z,96918.50
2023-07-15T06:53:28.922Z,96922.19
2023-07-15T06:54:31.626Z,96913.81
2023-07-15T06:55:33.311Z,96911.72
2023-07-15T06:56:34.973Z,96912.88
2023-07-15T06:57:36.642Z,96918.41
2023-07-15T06:58:38.379Z,96911.53
2023-07-15T06:59:40.276Z,96912.72
2023-07-15T07:00:42.371Z,96919.44
2023-07-15T07:01:44.093Z,96914.22
2023-07-15T07:02:46.389Z,96913.84
2023-07-15T07:03:48.056Z,96920.81
2023-07-15T07:04:49.770Z,96915.38
2023-07-15T07:05:51.537Z,96916.06
2023-07-15T07:06:53.216Z,96914.19
2023-07-15T07:07:55.734Z,96912.72
2023-07-15T07:08:57.438Z,96916.16
2023-07-15T07:09:59.099Z,96913.66
2023-07-15T07:11:00.737Z,96916.44
2023-07-15T07:12:02.340Z,96914.81
2023-07-15T07:13:05.782Z,96913.72
2023-07-15T07:14:07.342Z,96906.72
2023-07-15T07:15:09.418Z,96903.28
2023-07-15T07:16:11.158Z,96910.75
2023-07-15T07:17:12.865Z,96916.44
2023-07-15T07:18:14.907Z,96908.84
2023-07-15T07:19:16.626Z,96912.53
2023-07-15T07:20:18.317Z,96910.03
2023-07-15T07:21:19.908Z,96912.44
2023-07-15T07:22:21.729Z,96909.00
2023-07-15T07:23:23.757Z,96901.63
2023-07-15T07:24:25.384Z,96902.38
2023-07-15T07:25:27.034Z,96904.66
2023-07-15T07:26:28.877Z,96903.00
2023-07-15T07:27:30.612Z,96906.13
2023-07-15T07:28:45.880Z,96901.03
2023-07-15T07:29:47.431Z,96899.19
2023-07-15T07:30:49.188Z,96901.13
2023-07-15T07:31:53.397Z,96907.72
2023-07-15T07:32:55.159Z,96894.75
2023-07-15T07:33:56.975Z,96904.22
2023-07-15T07:34:59.461Z,96902.59
2023-07-15T07:36:01.164Z,96901.34
2023-07-15T07:37:04.864Z,96907.09
2023-07-15T07:38:06.812Z,96902.97
2023-07-15T07:39:08.731Z,96904.91
2023-07-15T07:40:13.537Z,96903.47
2023-07-15T07:41:17.889Z,96895.88
2023-07-15T07:42:20.816Z,96902.50
2023-07-15T07:43:22.490Z,96894.22
2023-07-15T07:44:24.231Z,96896.88
2023-07-15T07:45:25.831Z,96900.66
2023-07-15T07:46:28.095Z,96907.78
2023-07-15T07:47:29.753Z,96901.28
2023-07-15T07:48:31.669Z,96894.03
2023-07-15T07:49:35.497Z,96900.75
2023-07-15T07:50:37.485Z,96892.69
2023-07-15T07:51:39.228Z,96900.53
2023-07-15T07:52:40.811Z,96901.13
2023-07-15T07:53:42.427Z,96888.28
2023-07-15T07:54:44.095Z,96886.19
2023-07-15T07:55:47.010Z,96893.91
2023-07-15T07:56:48.780Z,96891.06
2023-07-15T07:57:50.354Z,96893.34
2023-07-15T07:58:58.572Z,96890.56
2023-07-15T08:00:00.392Z,96892.09
2023-07-15T08:01:02.304Z,96890.00
2023-07-15T08:02:04.186Z,96889.78
2023-07-15T08:03:05.855Z,96890.00
2023-07-15T08:04:07.612Z,96885.59
2023-07-15T08:05:09.795Z,96886.84
2023-07-15T08:06:13.120Z,96879.81
2023-07-15T08:07:15.608Z,96888.72
2023-07-15T08:08:17.829Z,96881.13
2023-07-15T08:09:19.526Z,96879.53
2023-07-15T08:10:21.257Z,96878.22
2023-07-15T08:11:23.031Z,96884.91
2023-07-15T08:12:24.818Z,96873.53
2023-07-15T08:13:26.519Z,96877.66
2023-07-15T08:14:28.225Z,96874.13
2023-07-15T08:15:30.378Z,96885.88
2023-07-15T08:16:37.140Z,96881.78
2023-07-15T08:17:38.918Z,96882.72
2023-07-15T08:18:40.586Z,96886.94
2023-07-15T08:19:42.169Z,96886.97
2023-07-15T08:20:43.862Z,96876.56
2023-07-15T08:21:45.476Z,96877.00
2023-07-15T08:22:47.529Z,96879.75
2023-07-15T08:23:49.399Z,96872.34
2023-07-15T08:24:50.979Z,96877.44
2023-07-15T08:25:54.201Z,96871.97
2023-07-15T08:26:55.867Z,96871.13
2023-07-15T08:27:57.644Z,96869.94
2023-07-15T08:29:02.285Z,96872.66
2023-07-15T08:30:05.083Z,96872.78
2023-07-15T08:31:06.738Z,96871.53
2023-07-15T08:32:08.714Z,96866.97
2023-07-15T08:33:11.049Z,96870.63
2023-07-15T08:34:12.781Z,96866.94
2023-07-15T08:35:14.562Z,96867.09
2023-07-15T08:36:16.229Z,96868.09
2023-07-15T08:37:17.975Z,96866.06
2023-07-15T08:38:19.652Z,96869.41
2023-07-15T08:39:21.309Z,96871.41
2023-07-15T08:40:25.689Z,96867.72
2023-07-15T08:41:27.641Z,96868.63
2023-07-15T08:42:31.217Z,96865.91
2023-07-15T08:43:33.156Z,96867.84
2023-07-15T08:44:34.835Z,96865.63
2023-07-15T08:45:37.224Z,96865.34
2023-07-15T08:46:39.556Z,96866.75
2023-07-15T08:47:44.804Z,96868.72
2023-07-15T08:48:46.487Z,96863.06
2023-07-15T08:49:50.340Z,96859.69
2023-07-15T08:50:56.635Z,96863.75
2023-07-15T08:51:58.959Z,96859.31
2023-07-15T08:53:02.890Z,96859.16
2023-07-15T08:54:07.196Z,96855.59
2023-07-15T08:55:09.828Z,96862.22
2023-07-15T08:56:12.982Z,96859.84
2023-07-15T08:57:19.588Z,96861.34
2023-07-15T08:58:21.688Z,96854.44
2023-07-15T08:59:24.708Z,96846.19
2023-07-15T09:00:27.145Z,96846.44
2023-07-15T09:01:28.857Z,96850.94
2023-07-15T09:02:30.957Z,96849.88
2023-07-15T09:03:32.810Z,96851.91
2023-07-15T09:04:35.219Z,96855.13
2023-07-15T09:05:36.893Z,96849.50
2023-07-15T09:06:38.632Z,96852.25
2023-07-15T09:08:10.446Z,96853.91
2023-07-15T09:09:14.142Z,96854.72
2023-07-15T09:10:15.943Z,96856.56
2023-07-15T09:11:17.854Z,96848.13
2023-07-15T09:12:23.932Z,96851.19
2023-07-15T09:13:30.463Z,96844.25
2023-07-15T09:14:32.178Z,96843.56
2023-07-15T09:15:34.234Z,96845.44
2023-07-15T09:16:40.074Z,96848.00
2023-07-15T09:17:50.902Z,96841.34
2023-07-15T09:18:52.930Z,96848.13
2023-07-15T09:19:54.509Z,96838.19
2023-07-15T09:21:17.051Z,96840.69
2023-07-15T09:22:20.308Z,96839.63
2023-07-15T09:23:22.002Z,96840.06
2023-07-15T09:24:23.736Z,96832.00
2023-07-15T09:25:26.185Z,96833.00
2023-07-15T09:26:29.504Z,96827.38
2023-07-15T09:27:31.115Z,96831.72
2023-07-15T09:28:32.777Z,96828.06
2023-07-15T09:29:34.899Z,96818.63
2023-07-15T09:30:40.203Z,96835.28
2023-07-15T09:31:41.904Z,96831.84
2023-07-15T09:32:43.661Z,96828.53
2023-07-15T09:33:45.269Z,96831.84
2023-07-15T09:34:51.946Z,96829.06
2023-07-15T09:35:53.585Z,96829.69
2023-07-15T09:36:55.498Z,96817.16
2023-07-15T09:37:57.133Z,96824.06
2023-07-15T09:39:13.045Z,96817.13
2023-07-15T09:40:14.799Z,96816.25
2023-07-15T09:41:20.464Z,96814.53
2023-07-15T09:42:22.089Z,96818.16
2023-07-15T09:43:23.669Z,96818.44
2023-07-15T09:44:39.105Z,96814.47
2023-07-15T09:45:42.178Z,96809.13
2023-07-15T09:46:44.013Z,96815.78
2023-07-15T09:47:45.736Z,96811.50
2023-07-15T09:48:52.460Z,96815.25
2023-07-15T09:49:54.062Z,96800.59
2023-07-15T09:50:56.505Z,96803.34
2023-07-15T09:52:02.373Z,96804.53
2023-07-15T09:53:05.369Z,96795.50
2023-07-15T09:54:07.950Z,96800.13
2023-07-15T09:55:09.760Z,96798.66
2023-07-15T09:56:12.353Z,96801.25
2023-07-15T09:57:15.234Z,96801.81
2023-07-15T09:58:24.006Z,96797.63
2023-07-15T09:59:29.357Z,96794.19
2023-07-15T10:00:35.605Z,96794.31
2023-07-15T10:01:41.779Z,96794.06
2023-07-15T10:02:45.348Z,96794.06
2023-07-15T10:04:17.843Z,96789.41
2023-07-15T10:05:20.035Z,96790.41
2023-07-15T10:06:22.565Z,96799.94
2023-07-15T10:07:24.723Z,96787.06
2023-07-15T10:08:26.767Z,96787.41
2023-07-15T10:09:29.745Z,96790.47
2023-07-15T10:10:31.589Z,96784.91
2023-07-15T10:11:34.662Z,96783.72
2023-07-15T10:12:37.395Z,96780.50
2023-07-15T10:13:39.312Z,96783.38
2023-07-15T10:14:42.702Z,96788.16
2023-07-15T10:15:45.925Z,96781.50
2023-07-15T10:17:11.243Z,96786.69
2023-07-15T10:18:19.718Z,96776.75
2023-07-15T10:19:42.038Z,96772.31
2023-07-15T10:20:47.496Z,96771.44
2023-07-15T10:21:59.443Z,96771.97
2023-07-15T10:23:03.171Z,96779.38
2023-07-15T10:24:13.301Z,96774.84
2023-07-15T10:25:16.989Z,96772.41
2023-07-15T10:26:22.493Z,96777.19
2023-07-15T10:27:31.487Z,96772.00
2023-07-15T10:28:38.911Z,96772.56
2023-07-15T10:29:41.618Z,96775.59
2023-07-15T10:31:13.847Z,96769.88
2023-07-15T10:32:20.136Z,96766.88
2023-07-15T10:33:25.657Z,96769.72
2023-07-15T10:34:36.706Z,96766.41
2023-07-15T10:35:41.374Z,96769.78
2023-07-15T10:36:51.464Z,96777.03
2023-07-15T10:37:53.079Z,96769.47
2023-07-15T10:39:13.961Z,96770.34
2023-07-15T10:40:56.438Z,96770.44
2023-07-15T10:42:08.590Z,96769.03
2023-07-15T10:43:10.251Z,96771.09
2023-07-15T10:44:23.017Z,96765.56
2023-07-15T10:45:42.070Z,96765.41
2023-07-15T10:46:48.038Z,96765.81
2023-07-15T10:47:49.752Z,96765.31
2023-07-15T10:48:51.362Z,96765.66
2023-07-15T10:49:53.402Z,96759.41
2023-07-15T10:50:58.522Z,96757.94
2023-07-15T10:52:00.790Z,96754.91
2023-07-15T10:53:22.819Z,96759.47
2023-07-15T10:54:29.342Z,96756.47
2023-07-15T10:55:31.947Z,96761.81
2023-07-15T10:56:33.498Z,96758.00
2023-07-15T10:57:52.910Z,96748.91
2023-07-15T10:58:58.032Z,96748.13
2023-07-15T11:00:09.173Z,96750.19
2023-07-15T11:01:14.086Z,96747.38
2023-07-15T11:02:16.164Z,96749.94
2023-07-15T11:03:20.047Z,96741.81
2023-07-15T11:04:22.202Z,96739.78
2023-07-15T11:05:23.945Z,96740.81
2023-07-15T11:06:26.917Z,96745.13
2023-07-15T11:07:29.887Z,96741.31
2023-07-15T11:08:32.793Z,96744.91
2023-07-15T11:09:38.724Z,96743.09
2023-07-15T11:10:40.317Z,96735.00
2023-07-15T11:11:41.986Z,96739.81
2023-07-15T11:12:43.613Z,96727.91
2023-07-15T11:13:46.665Z,96739.31
2023-07-15T11:14:48.364Z,96737.53
2023-07-15T11:15:49.947Z,96735.75
2023-07-15T11:16:52.876Z,96733.72
2023-07-15T11:17:54.604Z,96733.22
2023-07-15T11:18:56.273Z,96733.44
2023-07-15T11:19:57.975Z,96731.19
2023-07-15T11:21:01.002Z,96732.19
2023-07-15T11:22:08.855Z,96727.13
2023-07-15T11:23:10.654Z,96724.06
2023-07-15T11:24:13.996Z,96726.59
2023-07-15T11:25:15.719Z,96722.00
2023-07-15T11:26:17.690Z,96729.03
2023-07-15T11:27:19.844Z,96718.84
2023-07-15T11:28:21.571Z,96722.44
2023-07-15T11:29:25.620Z,96720.94
2023-07-15T11:30:38.717Z,96717.38
2023-07-15T11:31:45.330Z,96722.78
2023-07-15T11:32:56.465Z,96718.41
2023-07-15T11:33:59.120Z,96713.31
2023-07-15T11:35:11.530Z,96709.31
2023-07-15T11:36:13.377Z,96713.88
2023-07-15T11:37:15.301Z,96713.06
2023-07-15T11:38:28.618Z,96709.72
2023-07-15T11:39:30.993Z,96701.31
2023-07-15T11:40:34.963Z,96715.28
2023-07-15T11:41:40.046Z,96714.50
2023-07-15T11:42:41.726Z,96705.84
2023-07-15T11:43:43.627Z,96703.38
2023-07-15T11:44:45.456Z,96707.72
2023-07-15T11:45:47.719Z,96708.25
2023-07-15T11:46:49.929Z,96702.19
2023-07-15T11:47:55.718Z,96700.19
2023-07-15T11:48:59.704Z,96712.34
2023-07-15T11:50:01.340Z,96699.66
2023-07-15T11:51:10.098Z,96702.22
2023-07-15T11:52:20.483Z,96705.00
2023-07-15T11:53:32.336Z,96700.94
2023-07-15T11:54:34.026Z,96703.50
2023-07-15T11:55:38.713Z,96697.38
2023-07-15T11:56:42.209Z,96698.41
2023-07-15T11:57:44.271Z,96693.59
2023-07-15T11:58:45.827Z,96701.19
2023-07-15T11:59:50.391Z,96698.41
2023-07-15T12:00:52.123Z,96692.03
2023-07-15T12:01:54.660Z,96690.78
2023-07-15T12:02:57.437Z,96688.22
2023-07-15T12:03:59.263Z,96684.16
2023-07-15T12:05:01.105Z,96689.25
2023-07-15T12:06:03.004Z,96678.34
2023-07-15T12:07:05.553Z,96688.25
2023-07-15T12:08:13.819Z,96686.22
2023-07-15T12:09:18.563Z,96683.16
2023-07-15T12:10:21.008Z,96679.34
2023-07-15T12:11:22.728Z,96689.25
2023-07-15T12:12:24.326Z,96678.06
2023-07-15T12:13:27.302Z,96675.31
2023-07-15T12:14:32.327Z,96680.34
2023-07-15T12:15:33.882Z,96676.53
2023-07-15T12:16:37.411Z,96676.28
2023-07-15T12:17:39.259Z,96671.75
2023-07-15T12:18:40.869Z,96673.78
2023-07-15T12:19:43.201Z,96676.03
2023-07-15T12:20:44.822Z,96669.69
2023-07-15T12:21:46.638Z,96674.28
2023-07-15T12:22:48.311Z,96669.69